Time;durP1;ratioP1;P1;durP2;ratioP2;P2;SDS_P1;SDS_P2;PMS_P1;PMS_P2;Temp;Humidity;BMP_temperature;BMP_pressure;BME280_temperature;BME280_humidity;BME280_pressure;Samples;Min_cycle;Max_cycle;Signal;HPM_P1;HPM_P2
2023/12/11 00:01:22;;;;;;;11.85;7.57;;;11.40;78.60;;;;;;5015075;28;20033;-81
2023/12/11 00:03:47;;;;;;;12.85;7.53;;;11.40;78.80;;;;;;5014080;28;20080;-81
2023/12/11 00:06:13;;;;;;;10.50;7.40;;;11.40;78.70;;;;;;5014915;28;20045;-81
2023/12/11 00:08:39;;;;;;;18.70;9.73;;;11.30;78.70;;;;;;5014785;28;20045;-81
2023/12/11 00:11:05;;;;;;;15.27;8.70;;;11.30;78.70;;;;;;5014371;28;20121;-82
2023/12/11 00:13:31;;;;;;;13.80;7.88;;;11.30;78.90;;;;;;5014453;28;20064;-81
2023/12/11 00:15:56;;;;;;;12.60;7.30;;;11.30;79.10;;;;;;5014714;28;20038;-82
2023/12/11 00:18:22;;;;;;;12.75;7.13;;;11.20;78.90;;;;;;5014325;28;20121;-82
2023/12/11 00:20:48;;;;;;;11.10;7.20;;;11.20;78.80;;;;;;5014252;28;20062;-81
2023/12/11 00:23:13;;;;;;;12.57;7.50;;;11.10;79.00;;;;;;5014284;28;20061;-82
2023/12/11 00:25:46;;;;;;;11.50;7.78;;;11.10;79.10;;;;;;5014451;28;20038;-80
2023/12/11 00:28:12;;;;;;;12.32;7.57;;;11.00;79.30;;;;;;5014545;28;20561;-82
2023/12/11 00:30:38;;;;;;;13.18;7.95;;;11.00;79.50;;;;;;5014125;28;20045;-81
2023/12/11 00:33:04;;;;;;;13.77;8.00;;;10.90;79.60;;;;;;5014784;28;20037;-82
2023/12/11 00:35:30;;;;;;;14.93;8.63;;;10.80;80.10;;;;;;5014702;28;20108;-81
2023/12/11 00:37:55;;;;;;;16.05;8.60;;;10.70;80.10;;;;;;5014369;28;20200;-81
2023/12/11 00:40:21;;;;;;;15.20;8.00;;;10.70;80.30;;;;;;5013840;28;20132;-81
2023/12/11 00:42:47;;;;;;;14.05;7.95;;;10.60;80.60;;;;;;5013918;28;20038;-81
2023/12/11 00:45:15;;;;;;;15.48;8.57;;;10.60;80.60;;;;;;5014113;28;20085;-81
2023/12/11 00:47:41;;;;;;;16.70;8.10;;;10.60;81.70;;;;;;5014203;28;20073;-81
2023/12/11 00:50:07;;;;;;;13.43;8.20;;;10.50;80.10;;;;;;5014113;28;20061;-81
2023/12/11 00:52:33;;;;;;;13.13;8.32;;;10.50;80.80;;;;;;5013504;28;20030;-82
2023/12/11 00:54:59;;;;;;;14.10;8.48;;;10.50;80.60;;;;;;5013257;28;20040;-81
2023/12/11 00:57:25;;;;;;;13.18;8.00;;;10.50;80.50;;;;;;5014282;28;20061;-82
2023/12/11 00:59:51;;;;;;;14.38;8.95;;;10.50;80.50;;;;;;5014813;28;20479;-81
2023/12/11 01:02:17;;;;;;;13.98;8.70;;;10.50;80.40;;;;;;5014819;28;20038;-81
2023/12/11 01:04:44;;;;;;;15.43;9.73;;;10.50;80.70;;;;;;5013447;28;20103;-81
2023/12/11 01:07:10;;;;;;;13.35;9.10;;;10.50;80.20;;;;;;5013466;28;20075;-81
2023/12/11 01:09:36;;;;;;;17.20;8.40;;;10.40;80.30;;;;;;5013609;28;20383;-80
2023/12/11 01:12:03;;;;;;;14.40;9.70;;;10.30;80.50;;;;;;5013071;28;20058;-80
2023/12/11 01:14:28;;;;;;;16.83;9.20;;;10.20;80.80;;;;;;5013275;28;20030;-81
2023/12/11 01:16:54;;;;;;;15.25;8.95;;;10.20;80.70;;;;;;5013238;28;20052;-80
2023/12/11 01:19:20;;;;;;;12.52;8.75;;;10.20;80.90;;;;;;5013038;28;20112;-80
2023/12/11 01:21:45;;;;;;;13.98;9.52;;;10.20;80.90;;;;;;5012902;28;20442;-81
2023/12/11 01:24:12;;;;;;;12.45;9.52;;;10.20;80.60;;;;;;5012845;28;20030;-81
2023/12/11 01:26:38;;;;;;;15.88;10.68;;;10.20;80.50;;;;;;5012759;28;20033;-79
2023/12/11 01:29:04;;;;;;;14.88;9.60;;;10.10;80.70;;;;;;5013139;28;20038;-80
2023/12/11 01:31:30;;;;;;;15.35;10.20;;;10.10;80.30;;;;;;5012689;28;20050;-80
2023/12/11 01:33:56;;;;;;;14.85;9.93;;;10.10;80.40;;;;;;5012876;28;20041;-81
2023/12/11 01:36:22;;;;;;;17.88;10.48;;;10.10;80.50;;;;;;5012936;28;20061;-81
2023/12/11 01:38:49;;;;;;;16.50;10.18;;;10.00;80.30;;;;;;5012851;28;20038;-81
2023/12/11 01:41:16;;;;;;;16.17;10.75;;;10.00;80.60;;;;;;5012848;28;20045;-82
2023/12/11 01:43:50;;;;;;;16.65;11.02;;;10.00;80.30;;;;;;5012835;28;20038;-80
2023/12/11 01:46:18;;;;;;;16.83;10.63;;;10.00;80.20;;;;;;5012726;28;20034;-82
2023/12/11 01:48:44;;;;;;;16.75;11.07;;;10.00;80.20;;;;;;5012552;28;20438;-81
2023/12/11 01:51:13;;;;;;;15.57;10.55;;;10.00;80.10;;;;;;5011271;28;20141;-81
2023/12/11 01:53:39;;;;;;;17.27;10.82;;;10.00;80.20;;;;;;5012698;28;20542;-80
2023/12/11 01:56:05;;;;;;;14.38;10.60;;;10.00;80.20;;;;;;5012739;28;20077;-81
2023/12/11 01:58:31;;;;;;;17.55;10.43;;;10.00;80.20;;;;;;5012606;28;20042;-81
2023/12/11 02:00:57;;;;;;;14.90;9.68;;;10.10;79.90;;;;;;5012475;28;20034;-81
2023/12/11 02:03:24;;;;;;;12.77;9.30;;;10.00;79.40;;;;;;5012229;28;20044;-81
2023/12/11 02:05:51;;;;;;;14.85;9.70;;;10.00;79.40;;;;;;5012317;28;20037;-81
2023/12/11 02:08:16;;;;;;;13.43;8.80;;;10.00;79.10;;;;;;5012571;28;20040;-80
2023/12/11 02:10:42;;;;;;;13.70;9.75;;;10.00;79.70;;;;;;5012136;28;20022;-82
2023/12/11 02:13:08;;;;;;;12.90;9.57;;;10.00;78.90;;;;;;5012562;28;20026;-81
2023/12/11 02:15:40;;;;;;;12.98;9.30;;;10.00;79.00;;;;;;5012370;28;20113;-81
2023/12/11 02:18:08;;;;;;;13.52;9.65;;;10.00;79.30;;;;;;5012236;28;20064;-79
2023/12/11 02:20:34;;;;;;;14.93;9.48;;;10.10;78.80;;;;;;5012038;28;20476;-80
2023/12/11 02:23:04;;;;;;;15.40;9.82;;;10.00;78.80;;;;;;5012416;28;20134;-81
2023/12/11 02:25:33;;;;;;;12.85;9.20;;;10.00;78.90;;;;;;5012840;28;20026;-81
2023/12/11 02:27:59;;;;;;;12.52;9.20;;;10.00;78.90;;;;;;5015990;28;20034;-81
2023/12/11 02:30:25;;;;;;;14.27;9.45;;;10.00;79.00;;;;;;5015973;28;20518;-80
2023/12/11 02:32:53;;;;;;;12.23;8.85;;;9.90;80.00;;;;;;5015931;28;20037;-82
2023/12/11 02:35:19;;;;;;;11.73;8.52;;;9.80;79.90;;;;;;5015664;28;20525;-80
2023/12/11 02:37:45;;;;;;;14.00;8.82;;;9.80;79.70;;;;;;5015590;28;20037;-80
2023/12/11 02:40:11;;;;;;;12.40;8.05;;;9.80;80.10;;;;;;5015679;28;20491;-82
2023/12/11 02:42:36;;;;;;;12.10;8.25;;;9.80;79.70;;;;;;5015924;28;20033;-81
2023/12/11 02:45:02;;;;;;;11.85;7.70;;;9.70;79.60;;;;;;5015702;28;20030;-80
2023/12/11 02:47:28;;;;;;;12.30;7.72;;;9.80;79.80;;;;;;5015424;28;20076;-82
2023/12/11 02:49:53;;;;;;;10.93;7.60;;;9.80;79.90;;;;;;5015647;28;20131;-81
2023/12/11 02:52:19;;;;;;;15.82;8.55;;;9.80;79.70;;;;;;5015674;28;20041;-80
2023/12/11 02:54:45;;;;;;;13.13;7.53;;;9.70;79.30;;;;;;5015624;28;20061;-80
2023/12/11 02:57:10;;;;;;;17.20;8.13;;;9.60;79.40;;;;;;5015423;28;20072;-79
2023/12/11 02:59:36;;;;;;;11.77;7.15;;;9.60;79.80;;;;;;5015437;28;20040;-80
2023/12/11 03:02:03;;;;;;;10.77;6.95;;;9.60;80.10;;;;;;5015294;28;20034;-80
2023/12/11 03:04:28;;;;;;;11.55;7.07;;;9.60;79.90;;;;;;5015224;28;20037;-81
2023/12/11 03:06:54;;;;;;;11.18;6.70;;;9.60;79.30;;;;;;5015098;28;20026;-81
2023/12/11 03:09:20;;;;;;;10.95;7.10;;;9.60;78.50;;;;;;5015327;28;20443;-80
2023/12/11 03:11:45;;;;;;;10.35;6.45;;;9.60;78.80;;;;;;5014732;28;20130;-81
2023/12/11 03:14:12;;;;;;;12.65;6.43;;;9.60;78.90;;;;;;5014873;28;20419;-81
2023/12/11 03:16:38;;;;;;;9.05;5.97;;;9.60;78.10;;;;;;5015059;28;20034;-81
2023/12/11 03:19:04;;;;;;;10.10;6.22;;;9.50;77.70;;;;;;5015256;28;20407;-80
2023/12/11 03:21:29;;;;;;;8.25;5.82;;;9.50;77.70;;;;;;5015683;28;20105;-81
2023/12/11 03:23:55;;;;;;;8.77;5.80;;;9.50;77.50;;;;;;5015460;28;20542;-80
2023/12/11 03:26:21;;;;;;;10.05;6.20;;;9.50;77.60;;;;;;5015672;28;20026;-80
2023/12/11 03:28:46;;;;;;;9.75;5.70;;;9.50;77.70;;;;;;5014842;28;20034;-80
2023/12/11 03:31:12;;;;;;;8.68;5.80;;;9.50;77.60;;;;;;5015128;28;20488;-79
2023/12/11 03:33:38;;;;;;;8.63;6.00;;;9.50;78.10;;;;;;4997332;28;20042;-81
2023/12/11 03:36:04;;;;;;;10.38;5.93;;;9.50;77.30;;;;;;5014513;28;20049;-79
2023/12/11 03:38:30;;;;;;;9.70;5.90;;;9.50;77.50;;;;;;5014640;28;20614;-80
2023/12/11 03:40:55;;;;;;;11.10;6.60;;;9.60;77.50;;;;;;5014537;28;20065;-80
2023/12/11 03:43:21;;;;;;;9.55;6.07;;;9.60;77.30;;;;;;5014439;28;20034;-81
2023/12/11 03:45:47;;;;;;;10.63;5.65;;;9.70;77.40;;;;;;5014355;28;20041;-81
2023/12/11 03:48:13;;;;;;;9.75;5.65;;;9.80;77.20;;;;;;5014395;28;20034;-81
2023/12/11 03:50:39;;;;;;;8.95;5.25;;;9.80;77.00;;;;;;5014177;28;20045;-80
2023/12/11 03:53:05;;;;;;;8.75;5.50;;;9.80;76.80;;;;;;5014292;28;20041;-80
2023/12/11 03:55:30;;;;;;;7.30;5.38;;;9.70;76.40;;;;;;5014302;28;20092;-81
2023/12/11 03:57:56;;;;;;;8.57;5.05;;;9.70;76.80;;;;;;5014067;28;20491;-80
2023/12/11 04:00:22;;;;;;;12.25;5.13;;;9.70;76.60;;;;;;5014270;28;20108;-80
2023/12/11 04:02:48;;;;;;;8.95;5.28;;;9.70;76.30;;;;;;5013951;28;20041;-80
2023/12/11 04:05:14;;;;;;;9.95;4.93;;;9.70;76.20;;;;;;5014172;28;20030;-82
2023/12/11 04:07:39;;;;;;;8.00;4.68;;;9.70;76.20;;;;;;5014365;28;20153;-80
2023/12/11 04:10:06;;;;;;;7.60;4.57;;;9.70;75.80;;;;;;5014166;28;20152;-81
2023/12/11 04:12:31;;;;;;;9.40;4.88;;;9.70;76.00;;;;;;5013904;28;20526;-80
2023/12/11 04:14:57;;;;;;;11.68;5.70;;;9.60;76.20;;;;;;5013735;28;20038;-81
2023/12/11 04:17:23;;;;;;;11.65;4.60;;;9.70;76.30;;;;;;5013732;28;20038;-80
2023/12/11 04:19:48;;;;;;;14.27;5.25;;;9.70;76.30;;;;;;5013950;28;20108;-79
2023/12/11 04:22:14;;;;;;;7.68;4.70;;;9.80;76.10;;;;;;4996347;28;20040;-81
2023/12/11 04:24:40;;;;;;;11.23;4.50;;;9.70;75.20;;;;;;5013875;28;20100;-79
2023/12/11 04:27:05;;;;;;;10.30;4.63;;;9.60;75.10;;;;;;5013564;28;20085;-80
2023/12/11 04:29:31;;;;;;;7.65;4.72;;;9.70;75.90;;;;;;5013651;28;20053;-79
2023/12/11 04:31:57;;;;;;;7.50;5.10;;;9.70;76.10;;;;;;5013696;28;20381;-80
2023/12/11 04:34:22;;;;;;;9.77;5.05;;;9.80;76.00;;;;;;5013385;28;20030;-79
2023/12/11 04:36:48;;;;;;;12.07;4.80;;;9.70;75.30;;;;;;5013697;28;20068;-81
2023/12/11 04:39:14;;;;;;;7.82;4.47;;;9.70;75.70;;;;;;4995991;28;20034;-81
2023/12/11 04:41:40;;;;;;;7.72;4.50;;;9.70;76.00;;;;;;5013620;28;20030;-80
2023/12/11 04:44:05;;;;;;;7.82;4.70;;;9.60;75.50;;;;;;5013747;28;20041;-79
2023/12/11 04:46:31;;;;;;;11.30;5.80;;;9.50;76.10;;;;;;5013631;28;20030;-79
2023/12/11 04:48:57;;;;;;;10.18;5.78;;;9.50;76.30;;;;;;5012938;28;20482;-80
2023/12/11 04:51:23;;;;;;;9.50;5.00;;;9.50;76.10;;;;;;5013279;28;20506;-78
2023/12/11 04:53:49;;;;;;;7.82;5.00;;;9.40;76.40;;;;;;5013545;28;20037;-80
2023/12/11 04:56:15;;;;;;;8.02;5.03;;;9.40;76.60;;;;;;5013279;28;20099;-81
2023/12/11 04:58:42;;;;;;;8.60;4.82;;;9.30;76.70;;;;;;5013594;28;20073;-81
2023/12/11 05:01:08;;;;;;;9.57;4.82;;;9.30;77.20;;;;;;5013698;28;20030;-80
2023/12/11 05:03:33;;;;;;;8.35;4.55;;;9.20;77.40;;;;;;5013462;28;20061;-81
2023/12/11 05:05:59;;;;;;;7.35;4.30;;;9.30;77.00;;;;;;5013091;28;20421;-81
2023/12/11 05:08:25;;;;;;;9.07;5.00;;;9.30;77.00;;;;;;5013323;28;20127;-82
2023/12/11 05:10:51;;;;;;;12.80;4.93;;;9.40;77.20;;;;;;5012822;28;20072;-81
2023/12/11 05:13:16;;;;;;;12.55;4.80;;;9.40;77.30;;;;;;5012937;28;20045;-80
2023/12/11 05:15:42;;;;;;;9.07;4.65;;;9.40;76.80;;;;;;5013452;28;20393;-80
2023/12/11 05:18:07;;;;;;;9.20;4.57;;;9.40;77.00;;;;;;5013257;28;20053;-81
2023/12/11 05:20:33;;;;;;;9.27;4.57;;;9.40;77.20;;;;;;5013054;28;20030;-81
2023/12/11 05:22:59;;;;;;;8.38;4.40;;;9.30;77.30;;;;;;5012987;28;20056;-82
2023/12/11 05:25:24;;;;;;;10.70;5.78;;;9.30;77.30;;;;;;5012881;28;20054;-79
2023/12/11 05:27:50;;;;;;;10.65;5.72;;;9.20;77.30;;;;;;5012903;28;20503;-80
2023/12/11 05:30:16;;;;;;;9.95;5.40;;;9.20;77.70;;;;;;5012831;28;20030;-82
2023/12/11 05:32:43;;;;;;;8.30;5.30;;;9.10;77.90;;;;;;5012948;28;20451;-82
2023/12/11 05:35:08;;;;;;;8.98;5.38;;;9.00;77.70;;;;;;5013018;28;20022;-83
2023/12/11 05:37:34;;;;;;;9.30;5.32;;;9.00;78.10;;;;;;5012964;28;20041;-81
2023/12/11 05:40:00;;;;;;;8.57;4.75;;;9.10;78.00;;;;;;5012916;28;20033;-81
2023/12/11 05:42:26;;;;;;;8.07;5.30;;;9.10;78.10;;;;;;5011680;28;20065;-80
2023/12/11 05:44:51;;;;;;;7.55;4.88;;;9.10;78.10;;;;;;5013368;28;20396;-81
2023/12/11 05:47:17;;;;;;;9.20;5.10;;;9.10;78.10;;;;;;5012957;28;20041;-81
2023/12/11 05:49:43;;;;;;;8.10;4.97;;;9.10;78.20;;;;;;5013134;28;20030;-82
2023/12/11 05:52:09;;;;;;;10.07;5.03;;;9.00;77.80;;;;;;5013122;28;20112;-81
2023/12/11 05:54:34;;;;;;;9.75;5.18;;;9.00;78.00;;;;;;5013034;28;20399;-81
2023/12/11 05:57:00;;;;;;;8.90;5.05;;;9.00;78.30;;;;;;5012906;28;20050;-81
2023/12/11 05:59:26;;;;;;;9.57;5.20;;;9.20;78.20;;;;;;5012719;28;20555;-80
2023/12/11 06:01:52;;;;;;;8.65;4.55;;;9.10;78.10;;;;;;5014670;28;20033;-81
2023/12/11 06:04:17;;;;;;;9.43;4.45;;;9.10;78.10;;;;;;5016663;28;20030;-81
2023/12/11 06:06:43;;;;;;;9.07;4.38;;;9.20;77.80;;;;;;5016791;28;20483;-82
2023/12/11 06:09:09;;;;;;;12.35;5.68;;;9.30;77.70;;;;;;4998720;28;20030;-82
2023/12/11 06:11:34;;;;;;;7.30;4.68;;;9.30;77.40;;;;;;5016166;28;20464;-80
2023/12/11 06:14:00;;;;;;;8.60;4.85;;;9.40;77.80;;;;;;5016562;28;20045;-81
2023/12/11 06:16:26;;;;;;;7.97;5.00;;;9.50;77.60;;;;;;5016087;28;20044;-81
2023/12/11 06:18:51;;;;;;;10.13;4.85;;;9.60;77.50;;;;;;5016405;28;20492;-80
2023/12/11 06:21:21;;;;;;;9.10;4.90;;;9.60;77.50;;;;;;5016061;28;20038;-81
2023/12/11 06:23:47;;;;;;;9.98;5.63;;;9.80;77.30;;;;;;5015691;28;20112;-81
2023/12/11 06:26:31;;;;;;;8.75;5.10;;;9.90;77.50;;;;;;5016248;28;20037;-80
2023/12/11 06:29:00;;;;;;;10.68;5.20;;;9.90;77.00;;;;;;5016715;28;20132;-82
2023/12/11 06:31:27;;;;;;;9.57;4.70;;;9.90;76.70;;;;;;5016011;28;20034;-82
2023/12/11 06:33:53;;;;;;;7.45;4.45;;;9.90;76.70;;;;;;5015926;28;20034;-82
2023/12/11 06:36:21;;;;;;;9.73;4.80;;;9.90;77.10;;;;;;5015827;28;20044;-82
2023/12/11 06:38:50;;;;;;;8.55;5.15;;;9.90;76.90;;;;;;5016026;28;20092;-82
2023/12/11 06:41:17;;;;;;;9.45;5.15;;;10.00;75.60;;;;;;5015990;28;20487;-81
2023/12/11 06:43:52;;;;;;;11.25;5.40;;;10.00;75.70;;;;;;5016024;28;20033;-82
2023/12/11 06:46:18;;;;;;;8.43;5.13;;;10.10;77.30;;;;;;5016021;28;20475;-81
2023/12/11 06:48:44;;;;;;;9.27;5.32;;;10.20;75.90;;;;;;5015690;28;20050;-82
2023/12/11 06:51:09;;;;;;;9.82;5.20;;;10.20;75.40;;;;;;5015702;28;20104;-81
2023/12/11 06:53:35;;;;;;;10.38;5.00;;;10.30;75.40;;;;;;5015581;28;20117;-80
2023/12/11 06:56:01;;;;;;;11.10;5.20;;;10.30;75.40;;;;;;5015782;28;20117;-82
2023/12/11 06:58:27;;;;;;;9.65;4.97;;;10.30;75.50;;;;;;5015637;28;20038;-83
2023/12/11 07:00:53;;;;;;;10.02;5.35;;;10.40;75.50;;;;;;5015414;28;20117;-82
2023/12/11 07:03:18;;;;;;;9.02;4.72;;;10.40;75.10;;;;;;5015601;28;20038;-81
2023/12/11 07:05:46;;;;;;;9.95;5.68;;;10.40;75.30;;;;;;5015341;28;20037;-81
2023/12/11 07:08:11;;;;;;;9.93;5.00;;;10.40;75.30;;;;;;5015098;28;20041;-81
2023/12/11 07:10:39;;;;;;;10.18;5.55;;;10.30;75.30;;;;;;5015117;28;20034;-81
2023/12/11 07:13:04;;;;;;;8.88;5.93;;;10.30;75.20;;;;;;5014573;28;20053;-82
2023/12/11 07:15:30;;;;;;;10.50;5.47;;;10.30;75.80;;;;;;5015093;28;20478;-82
2023/12/11 07:17:56;;;;;;;13.18;5.90;;;10.40;76.10;;;;;;4997342;28;20072;-81
2023/12/11 07:20:22;;;;;;;13.60;6.18;;;10.40;76.00;;;;;;4997438;28;20129;-81
2023/12/11 07:22:49;;;;;;;10.13;5.57;;;10.40;75.90;;;;;;5014990;28;20109;-81
2023/12/11 07:25:16;;;;;;;10.73;6.28;;;10.40;75.60;;;;;;5015372;28;20041;-81
2023/12/11 07:27:42;;;;;;;15.13;6.22;;;10.50;75.60;;;;;;5014910;28;20117;-82
2023/12/11 07:30:09;;;;;;;13.77;6.05;;;10.40;75.30;;;;;;5014826;28;20036;-82
2023/12/11 07:32:35;;;;;;;9.65;5.30;;;10.50;75.60;;;;;;5014816;28;20431;-82
2023/12/11 07:35:00;;;;;;;10.45;5.57;;;10.60;75.40;;;;;;5014686;28;20030;-81
2023/12/11 07:37:26;;;;;;;10.90;5.95;;;10.60;75.40;;;;;;5014230;28;20054;-80
2023/12/11 07:39:52;;;;;;;14.65;6.10;;;10.60;75.20;;;;;;5014560;28;20118;-80
2023/12/11 07:42:18;;;;;;;15.82;5.88;;;10.70;75.10;;;;;;5014692;28;20041;-81
2023/12/11 07:44:43;;;;;;;10.35;6.00;;;10.80;75.10;;;;;;5014748;28;20038;-82
2023/12/11 07:47:09;;;;;;;13.65;6.10;;;10.80;74.70;;;;;;5014257;28;20049;-82
2023/12/11 07:49:35;;;;;;;11.32;5.60;;;10.90;74.50;;;;;;5014144;28;20022;-80
2023/12/11 07:52:02;;;;;;;16.35;6.20;;;11.00;74.40;;;;;;5014408;28;20041;-84
2023/12/11 07:54:28;;;;;;;13.80;6.25;;;11.00;74.30;;;;;;5014404;28;20397;-82
2023/12/11 07:56:53;;;;;;;11.80;6.07;;;11.10;74.30;;;;;;5013728;28;20121;-82
2023/12/11 07:59:19;;;;;;;11.32;6.18;;;11.10;74.30;;;;;;4996355;28;20034;-81
2023/12/11 08:01:45;;;;;;;13.23;6.88;;;11.20;74.20;;;;;;5013961;28;20442;-82
2023/12/11 08:04:12;;;;;;;12.00;6.55;;;11.20;74.10;;;;;;4996375;28;20549;-81
2023/12/11 08:06:42;;;;;;;14.40;6.13;;;11.20;74.20;;;;;;5014008;28;20117;-85
2023/12/11 08:09:11;;;;;;;14.60;6.28;;;11.30;74.10;;;;;;5013826;28;20042;-82
2023/12/11 08:11:37;;;;;;;12.15;6.63;;;11.30;73.90;;;;;;5013980;28;20049;-81
2023/12/11 08:14:02;;;;;;;16.88;7.00;;;11.40;73.80;;;;;;5013870;28;20038;-76
2023/12/11 08:16:28;;;;;;;15.50;7.25;;;11.40;74.00;;;;;;5014298;28;20037;-80
2023/12/11 08:18:54;;;;;;;18.50;7.57;;;11.40;73.70;;;;;;5014668;28;20038;-83
2023/12/11 08:21:20;;;;;;;15.82;6.70;;;11.40;73.50;;;;;;5014485;28;20503;-82
2023/12/11 08:23:47;;;;;;;17.67;6.97;;;11.50;73.70;;;;;;5012907;28;20131;-82
2023/12/11 08:26:18;;;;;;;20.00;7.97;;;11.60;73.20;;;;;;5013751;28;20351;-82
2023/12/11 08:28:44;;;;;;;18.73;7.60;;;11.60;73.20;;;;;;5013508;28;20041;-82
2023/12/11 08:31:10;;;;;;;19.35;7.65;;;11.60;73.20;;;;;;5016030;28;20033;-82
2023/12/11 08:33:36;;;;;;;18.27;7.95;;;11.60;73.40;;;;;;5016058;28;20042;-83
2023/12/11 08:36:03;;;;;;;12.98;7.25;;;11.70;73.30;;;;;;5013482;28;20080;-80
2023/12/11 08:38:29;;;;;;;20.10;7.15;;;11.70;73.30;;;;;;5013503;28;20050;-81
2023/12/11 08:40:55;;;;;;;17.90;6.93;;;11.80;73.20;;;;;;5013574;28;20053;-82
2023/12/11 08:43:21;;;;;;;16.50;7.45;;;11.70;73.20;;;;;;5013040;28;20060;-82
2023/12/11 08:45:47;;;;;;;21.98;7.93;;;11.60;73.40;;;;;;5013527;28;20053;-82
2023/12/11 08:48:13;;;;;;;18.05;7.75;;;11.70;73.60;;;;;;5013328;28;20096;-82
2023/12/11 08:50:39;;;;;;;16.38;7.03;;;11.70;73.70;;;;;;5013019;28;20026;-81
2023/12/11 08:53:05;;;;;;;19.63;7.00;;;11.80;73.50;;;;;;5013064;28;20060;-82
2023/12/11 08:55:31;;;;;;;16.50;7.13;;;11.90;73.40;;;;;;5013503;28;20038;-81
2023/12/11 08:57:57;;;;;;;15.23;6.82;;;12.00;73.30;;;;;;5012658;28;20050;-83
2023/12/11 09:00:23;;;;;;;13.77;6.57;;;12.20;73.20;;;;;;5013263;28;20029;-80
2023/12/11 09:02:51;;;;;;;17.65;7.53;;;12.30;72.90;;;;;;5013119;28;20483;-81
2023/12/11 09:05:17;;;;;;;16.00;7.22;;;12.30;72.70;;;;;;5012944;28;20452;-81
2023/12/11 09:07:42;;;;;;;20.55;7.10;;;12.40;72.70;;;;;;5013093;28;20040;-83
2023/12/11 09:10:09;;;;;;;17.17;6.63;;;12.50;72.60;;;;;;5013123;28;20034;-83
2023/12/11 09:12:36;;;;;;;13.45;6.85;;;12.50;72.50;;;;;;5012830;28;20041;-82
2023/12/11 09:15:04;;;;;;;18.40;6.68;;;12.50;72.60;;;;;;5013178;28;20495;-81
2023/12/11 09:17:30;;;;;;;18.00;7.38;;;12.50;72.60;;;;;;5012855;28;20074;-83
2023/12/11 09:19:55;;;;;;;14.75;7.00;;;12.60;72.80;;;;;;5012813;28;20101;-82
2023/12/11 09:22:22;;;;;;;16.40;6.55;;;12.60;72.70;;;;;;5013143;28;20037;-83
2023/12/11 09:24:47;;;;;;;16.45;5.97;;;12.70;72.50;;;;;;5012955;28;20110;-83
2023/12/11 09:27:13;;;;;;;12.23;6.72;;;12.80;72.50;;;;;;5013002;28;20511;-82
2023/12/11 09:29:39;;;;;;;15.63;6.93;;;13.00;72.40;;;;;;5012811;28;20045;-82
2023/12/11 09:32:05;;;;;;;18.65;6.93;;;13.10;72.20;;;;;;5012442;28;20034;-82
2023/12/11 09:34:33;;;;;;;21.48;7.72;;;13.30;72.10;;;;;;5011332;28;20065;-81
2023/12/11 09:36:58;;;;;;;17.58;7.25;;;13.30;71.80;;;;;;5013222;28;20038;-83
2023/12/11 09:39:25;;;;;;;11.27;6.53;;;13.40;72.00;;;;;;5013012;28;20113;-82
2023/12/11 09:41:52;;;;;;;13.93;6.40;;;13.50;72.20;;;;;;5012595;28;20057;-83
2023/12/11 09:44:20;;;;;;;25.73;7.80;;;13.60;71.90;;;;;;5012660;28;20038;-83
2023/12/11 09:47:10;;;;;;;13.45;7.47;;;13.70;72.00;;;;;;5012650;28;20187;-83
2023/12/11 09:49:37;;;;;;;18.35;7.50;;;13.90;71.90;;;;;;5012968;28;20431;-80
2023/12/11 09:52:03;;;;;;;13.20;6.82;;;13.90;72.00;;;;;;5012852;28;20041;-82
2023/12/11 09:54:29;;;;;;;14.63;7.15;;;14.00;71.90;;;;;;5012984;28;20061;-82
2023/12/11 09:56:55;;;;;;;19.45;7.18;;;14.00;71.80;;;;;;5012629;28;20026;-82
2023/12/11 09:59:22;;;;;;;13.35;6.97;;;14.00;72.00;;;;;;5013347;28;20038;-80
2023/12/11 10:01:49;;;;;;;17.85;7.18;;;14.00;72.10;;;;;;5017377;28;20034;-83
2023/12/11 10:04:15;;;;;;;17.15;7.28;;;14.10;72.20;;;;;;5015334;28;20088;-82
2023/12/11 10:06:40;;;;;;;18.95;7.93;;;14.20;73.00;;;;;;5015385;28;20038;-79
2023/12/11 10:09:06;;;;;;;17.42;7.80;;;14.30;72.40;;;;;;5015172;28;20034;-82
2023/12/11 10:11:33;;;;;;;14.13;8.52;;;14.50;72.60;;;;;;5013000;28;20455;-81
2023/12/11 10:14:12;;;;;;;14.85;7.78;;;14.60;72.50;;;;;;5012360;28;20530;-82
2023/12/11 10:16:37;;;;;;;19.60;8.80;;;14.80;72.80;;;;;;5012208;28;20460;-83
2023/12/11 10:19:03;;;;;;;18.02;9.52;;;14.90;72.80;;;;;;5012268;28;20048;-82
2023/12/11 10:21:39;;;;;;;17.60;9.25;;;15.10;72.70;;;;;;5012309;28;20552;-82
2023/12/11 10:24:07;;;;;;;20.25;9.60;;;15.10;72.40;;;;;;5012570;28;20476;-82
2023/12/11 10:26:37;;;;;;;21.65;9.77;;;15.10;72.80;;;;;;5012722;28;20037;-83
2023/12/11 10:29:25;;;;;;;15.68;8.80;;;15.10;72.90;;;;;;5012746;28;20127;-83
2023/12/11 10:31:59;;;;;;;20.13;8.95;;;15.10;73.10;;;;;;5012322;28;20081;-83
2023/12/11 10:34:50;;;;;;;18.23;9.00;;;15.20;73.20;;;;;;5012080;28;20519;-82
2023/12/11 10:37:17;;;;;;;21.58;8.93;;;15.30;73.10;;;;;;5011845;28;20038;-82
2023/12/11 10:39:53;;;;;;;24.05;9.15;;;15.50;73.30;;;;;;5011902;28;20495;-83
2023/12/11 10:42:19;;;;;;;24.17;8.82;;;15.60;73.30;;;;;;5012291;28;20041;-82
2023/12/11 10:44:45;;;;;;;25.52;9.40;;;15.70;73.10;;;;;;5012532;28;20052;-83
2023/12/11 10:47:11;;;;;;;22.48;10.30;;;15.90;73.10;;;;;;5013274;28;20473;-83
2023/12/11 10:49:38;;;;;;;22.95;9.55;;;16.10;73.20;;;;;;5016068;28;20038;-80
2023/12/11 10:52:03;;;;;;;18.98;8.43;;;16.20;73.10;;;;;;5015915;28;20053;-81
2023/12/11 10:54:30;;;;;;;19.17;8.40;;;16.50;73.40;;;;;;5015816;28;20030;-78
2023/12/11 10:56:59;;;;;;;23.98;8.95;;;16.60;73.50;;;;;;5015100;28;20052;-83
2023/12/11 10:59:26;;;;;;;17.13;7.25;;;16.60;73.80;;;;;;5015192;28;20034;-83
2023/12/11 11:01:54;;;;;;;19.63;7.03;;;16.60;74.00;;;;;;5015494;28;20484;-82
2023/12/11 11:04:20;;;;;;;12.98;5.15;;;16.70;75.00;;;;;;5015975;28;20045;-83
2023/12/11 11:06:53;;;;;;;14.75;5.47;;;16.70;75.60;;;;;;5015297;28;20172;-81
2023/12/11 11:09:33;;;;;;;13.73;4.65;;;16.70;76.30;;;;;;5015373;28;20076;-80
2023/12/11 11:12:07;;;;;;;14.70;4.60;;;16.70;76.80;;;;;;5015843;28;20053;-81
2023/12/11 11:14:48;;;;;;;15.88;4.85;;;16.70;77.40;;;;;;5015430;28;20061;-80
2023/12/11 11:17:16;;;;;;;14.57;4.63;;;16.70;77.80;;;;;;5015569;28;20042;-82
2023/12/11 11:20:15;;;;;;;13.88;4.28;;;16.70;77.80;;;;;;5015051;28;20038;-83
2023/12/11 11:22:41;;;;;;;16.88;4.90;;;16.80;78.10;;;;;;4972259;28;20381;-81
2023/12/11 11:25:29;;;;;;;17.85;4.30;;;16.90;78.20;;;;;;5014996;28;20034;-82
2023/12/11 11:27:55;;;;;;;14.73;3.72;;;17.00;78.20;;;;;;5014913;28;20030;-81
2023/12/11 11:30:45;;;;;;;17.73;4.07;;;17.00;78.40;;;;;;5014975;28;20096;-81
2023/12/11 11:33:11;;;;;;;14.52;3.55;;;17.00;78.50;;;;;;5015056;28;20026;-83
2023/12/11 11:35:46;;;;;;;10.85;3.42;;;17.00;79.50;;;;;;5014988;28;20042;-83
2023/12/11 11:38:13;;;;;;;14.38;3.55;;;16.90;79.20;;;;;;5014415;28;20148;-81
2023/12/11 11:40:38;;;;;;;14.18;3.70;;;16.80;79.30;;;;;;5014386;28;20033;-83
2023/12/11 11:43:08;;;;;;;12.77;3.83;;;16.80;79.60;;;;;;5014565;28;20034;-82
2023/12/11 11:45:33;;;;;;;14.48;4.00;;;16.70;80.00;;;;;;5014644;28;20499;-81
2023/12/11 11:48:00;;;;;;;15.05;4.18;;;16.60;80.30;;;;;;5015554;28;20045;-82
2023/12/11 11:50:25;;;;;;;16.88;4.10;;;16.60;80.60;;;;;;5018145;28;20464;-80
2023/12/11 11:52:58;;;;;;;16.67;3.90;;;16.50;80.80;;;;;;5014954;28;20086;-81
2023/12/11 11:55:27;;;;;;;16.70;3.80;;;16.50;81.80;;;;;;5015022;28;20041;-81
2023/12/11 11:57:53;;;;;;;14.65;4.20;;;16.50;81.90;;;;;;5014337;28;20312;-82
2023/12/11 12:00:28;;;;;;;15.30;4.38;;;16.40;81.50;;;;;;5014197;28;20112;-82
2023/12/11 12:03:04;;;;;;;11.93;4.22;;;16.40;81.90;;;;;;5014332;28;20030;-81
2023/12/11 12:05:30;;;;;;;16.33;3.80;;;16.30;81.90;;;;;;5014248;28;20442;-84
2023/12/11 12:07:56;;;;;;;14.13;3.67;;;16.40;82.50;;;;;;5014369;28;20036;-82
2023/12/11 12:10:22;;;;;;;13.05;3.92;;;16.30;82.30;;;;;;5014329;28;20034;-81
2023/12/11 12:12:55;;;;;;;17.33;4.68;;;16.40;82.40;;;;;;5013871;28;20078;-82
2023/12/11 12:15:21;;;;;;;13.35;4.78;;;16.40;82.40;;;;;;5014100;28;20484;-82
2023/12/11 12:17:46;;;;;;;12.40;4.30;;;16.40;82.50;;;;;;5013956;28;20075;-82
2023/12/11 12:20:16;;;;;;;14.98;4.20;;;16.40;82.40;;;;;;5014055;28;20037;-82
2023/12/11 12:23:02;;;;;;;15.98;3.67;;;16.40;82.60;;;;;;5013961;28;20108;-82
2023/12/11 12:25:29;;;;;;;13.63;4.13;;;16.30;82.60;;;;;;5014094;28;20044;-82
2023/12/11 12:28:15;;;;;;;18.90;4.25;;;16.30;82.80;;;;;;5014251;28;20030;-82
2023/12/11 12:30:40;;;;;;;16.00;4.20;;;16.30;83.00;;;;;;5013832;28;20185;-82
2023/12/11 12:33:11;;;;;;;13.52;3.58;;;16.20;83.10;;;;;;5014177;28;20225;-83
2023/12/11 12:35:38;;;;;;;17.10;4.75;;;16.20;83.10;;;;;;4996713;28;20081;-82
2023/12/11 12:38:05;;;;;;;19.75;4.40;;;16.20;83.20;;;;;;5014086;28;20081;-82
2023/12/11 12:40:34;;;;;;;12.32;3.60;;;16.10;83.50;;;;;;5014649;28;20030;-82
2023/12/11 12:43:13;;;;;;;14.98;4.00;;;16.10;83.70;;;;;;5017615;28;20441;-82